createdAt,value
2023-02-09T00:00:22.553Z,44.45
2023-02-09T00:01:57.484Z,37.08
2023-02-09T00:03:30.971Z,23.92
2023-02-09T00:05:05.688Z,35.97
2023-02-09T00:06:38.892Z,31.85
2023-02-09T00:08:12.111Z,25.67
2023-02-09T00:09:45.817Z,29.10
2023-02-09T00:11:22.165Z,31.73
2023-02-09T00:13:12.866Z,30.05
2023-02-09T00:14:45.183Z,26.05
2023-02-09T00:16:18.426Z,26.77
2023-02-09T00:17:51.541Z,41.17
2023-02-09T00:19:24.894Z,33.40
2023-02-09T00:21:00.745Z,46.10
2023-02-09T00:22:34.252Z,41.63
2023-02-09T00:24:10.805Z,26.65
2023-02-09T00:25:44.077Z,31.80
2023-02-09T00:27:17.458Z,31.67
2023-02-09T00:28:50.708Z,32.58
2023-02-09T00:30:26.726Z,34.45
2023-02-09T00:32:00.017Z,22.35
2023-02-09T00:33:33.459Z,24.67
2023-02-09T00:35:08.514Z,27.13
2023-02-09T00:36:43.039Z,29.75
2023-02-09T00:38:17.241Z,24.75
2023-02-09T00:39:50.561Z,26.80
2023-02-09T00:41:38.298Z,23.83
2023-02-09T00:43:12.287Z,22.33
2023-02-09T00:44:46.350Z,25.00
2023-02-09T00:46:19.622Z,34.33
2023-02-09T00:47:53.385Z,30.85
2023-02-09T00:49:26.638Z,34.47
2023-02-09T00:51:00.172Z,37.42
2023-02-09T00:52:35.042Z,39.10
2023-02-09T00:54:08.259Z,34.00
2023-02-09T00:55:41.356Z,34.17
2023-02-09T00:57:14.657Z,28.60
2023-02-09T00:58:47.801Z,33.47
2023-02-09T01:00:21.686Z,30.90
2023-02-09T01:01:54.797Z,30.15
2023-02-09T01:03:28.097Z,27.10
2023-02-09T01:05:00.409Z,24.40
2023-02-09T01:06:34.222Z,26.40
2023-02-09T01:08:08.927Z,21.60
2023-02-09T01:09:42.305Z,23.67
2023-02-09T01:11:15.910Z,26.90
2023-02-09T01:12:49.134Z,20.73
2023-02-09T01:14:22.260Z,26.58
2023-02-09T01:15:55.598Z,23.80
2023-02-09T01:17:29.176Z,30.88
2023-02-09T01:19:03.971Z,28.13
2023-02-09T01:20:37.319Z,33.70
2023-02-09T01:22:12.475Z,26.67
2023-02-09T01:23:48.368Z,25.63
2023-02-09T01:25:23.292Z,21.90
2023-02-09T01:26:55.364Z,25.48
2023-02-09T01:28:28.674Z,34.25
2023-02-09T01:30:02.156Z,25.05
2023-02-09T01:31:35.920Z,25.52
2023-02-09T01:33:09.146Z,29.30
2023-02-09T01:34:42.450Z,27.30
2023-02-09T01:36:15.781Z,22.58
2023-02-09T01:37:49.008Z,25.83
2023-02-09T01:39:23.545Z,29.02
2023-02-09T01:40:56.738Z,24.63
2023-02-09T01:42:29.946Z,27.17
2023-02-09T01:44:07.110Z,21.40
2023-02-09T01:45:46.171Z,33.40
2023-02-09T01:47:21.263Z,27.30
2023-02-09T01:49:00.733Z,24.02
2023-02-09T01:50:38.018Z,26.25
2023-02-09T01:52:14.122Z,19.02
2023-02-09T01:53:47.989Z,23.75
2023-02-09T01:55:26.768Z,22.05
2023-02-09T01:57:04.840Z,20.77
2023-02-09T01:58:38.490Z,22.98
2023-02-09T02:00:15.466Z,28.80
2023-02-09T02:01:48.864Z,28.33
2023-02-09T02:03:25.252Z,29.00
2023-02-09T02:04:58.522Z,26.30
2023-02-09T02:06:32.350Z,25.45
2023-02-09T02:08:10.365Z,22.88
2023-02-09T02:09:43.286Z,26.35
2023-02-09T02:11:18.676Z,32.05
2023-02-09T02:12:52.871Z,28.50
2023-02-09T02:14:29.775Z,21.38
2023-02-09T02:16:07.992Z,26.73
2023-02-09T02:17:53.241Z,18.75
2023-02-09T02:20:08.526Z,23.05
2023-02-09T02:22:07.882Z,21.85
2023-02-09T02:23:48.703Z,24.23
2023-02-09T02:25:57.263Z,23.98
2023-02-09T02:27:40.832Z,22.70
2023-02-09T02:29:31.273Z,28.10
2023-02-09T02:31:54.357Z,20.15
2023-02-09T02:33:41.707Z,21.70
2023-02-09T02:35:21.223Z,21.73
2023-02-09T02:37:02.615Z,22.55
2023-02-09T02:38:44.598Z,19.67
2023-02-09T02:40:27.006Z,21.88
2023-02-09T02:42:21.677Z,19.63
2023-02-09T02:44:03.767Z,21.85
2023-02-09T02:45:44.364Z,18.40
2023-02-09T02:47:21.967Z,19.52
2023-02-09T02:48:58.825Z,19.33
2023-02-09T02:50:34.091Z,15.15
2023-02-09T02:52:11.080Z,18.15
2023-02-09T02:53:49.866Z,22.73
2023-02-09T02:55:26.114Z,19.75
2023-02-09T02:57:04.518Z,29.00
2023-02-09T02:58:41.729Z,25.48
2023-02-09T03:00:19.625Z,31.58
2023-02-09T03:01:57.849Z,25.52
2023-02-09T03:03:35.223Z,27.48
2023-02-09T03:05:09.976Z,24.67
2023-02-09T03:06:43.441Z,26.50
2023-02-09T03:08:15.759Z,28.70
2023-02-09T03:09:52.626Z,24.85
2023-02-09T03:11:31.789Z,26.13
2023-02-09T03:13:16.224Z,32.55
2023-02-09T03:15:09.898Z,27.00
2023-02-09T03:16:47.214Z,29.65
2023-02-09T03:18:27.062Z,25.33
2023-02-09T03:20:07.064Z,23.98
2023-02-09T03:21:49.041Z,30.30
2023-02-09T03:23:30.627Z,16.08
2023-02-09T03:25:08.955Z,18.05
2023-02-09T03:26:52.107Z,17.63
2023-02-09T03:28:30.195Z,23.60
2023-02-09T03:30:06.417Z,29.08
2023-02-09T03:31:41.078Z,17.73
2023-02-09T03:33:25.351Z,19.20
2023-02-09T03:34:59.816Z,27.42
2023-02-09T03:36:37.408Z,26.02
2023-02-09T03:38:10.593Z,6.65
2023-02-09T03:39:43.774Z,19.73
2023-02-09T03:41:17.004Z,20.17
2023-02-09T03:42:50.899Z,24.02
2023-02-09T03:44:29.427Z,18.48
2023-02-09T03:46:02.614Z,13.85
2023-02-09T03:47:36.070Z,20.48
2023-02-09T03:49:09.193Z,22.25
2023-02-09T03:50:42.440Z,13.30
2023-02-09T03:52:17.846Z,18.02
2023-02-09T03:53:50.670Z,7.85
2023-02-09T03:55:23.777Z,33.42
2023-02-09T03:56:57.035Z,26.50
2023-02-09T03:58:29.556Z,28.80
2023-02-09T04:00:04.090Z,19.35
2023-02-09T04:01:45.043Z,16.05
2023-02-09T04:03:18.248Z,24.38
2023-02-09T04:04:51.817Z,21.42
2023-02-09T04:06:25.486Z,24.65
2023-02-09T04:08:00.656Z,24.08
2023-02-09T04:09:34.134Z,26.10
2023-02-09T04:11:07.640Z,23.63
2023-02-09T04:12:41.086Z,22.15
2023-02-09T04:14:14.505Z,20.48
2023-02-09T04:15:48.893Z,22.25
2023-02-09T04:17:22.085Z,21.90
2023-02-09T04:18:55.461Z,22.58
2023-02-09T04:20:28.652Z,25.52
2023-02-09T04:22:02.193Z,22.38
2023-02-09T04:23:36.710Z,26.55
2023-02-09T04:25:10.125Z,25.45
2023-02-09T04:26:43.350Z,30.48
2023-02-09T04:28:16.667Z,31.10
2023-02-09T04:29:49.990Z,29.83
2023-02-09T04:31:23.380Z,37.25
2023-02-09T04:32:56.574Z,37.10
2023-02-09T04:34:29.698Z,32.30
2023-02-09T04:36:03.577Z,41.42
2023-02-09T04:37:36.977Z,56.50
2023-02-09T04:39:11.771Z,82.97
2023-02-09T04:40:45.112Z,64.38
2023-02-09T04:42:18.575Z,91.57
2023-02-09T04:43:51.833Z,53.72
2023-02-09T04:45:24.946Z,49.67
2023-02-09T04:46:58.080Z,46.92
2023-02-09T04:48:32.002Z,51.38
2023-02-09T04:50:05.890Z,41.60
2023-02-09T04:51:39.145Z,47.53
2023-02-09T04:53:12.796Z,33.53
2023-02-09T04:54:47.380Z,31.15
2023-02-09T04:56:20.645Z,38.40
2023-02-09T04:58:11.585Z,32.83
2023-02-09T04:59:45.011Z,32.03
2023-02-09T05:01:21.263Z,27.42
2023-02-09T05:02:55.657Z,39.38
2023-02-09T05:04:28.817Z,38.13
2023-02-09T05:06:03.869Z,44.63
2023-02-09T05:07:37.041Z,50.20
2023-02-09T05:09:10.470Z,51.95
2023-02-09T05:10:45.175Z,57.55
2023-02-09T05:12:18.390Z,46.60
2023-02-09T05:13:51.911Z,47.60
2023-02-09T05:15:25.325Z,44.30
2023-02-09T05:16:58.527Z,34.95
2023-02-09T05:18:31.695Z,43.90
2023-02-09T05:20:05.308Z,31.98
2023-02-09T05:21:38.734Z,31.33
2023-02-09T05:23:12.832Z,34.85
2023-02-09T05:24:46.004Z,33.70
2023-02-09T05:26:20.795Z,42.42
2023-02-09T05:27:53.931Z,56.83
2023-02-09T05:29:27.389Z,50.63
2023-02-09T05:31:00.631Z,51.80
2023-02-09T05:32:33.999Z,39.40
2023-02-09T05:34:07.227Z,40.45
2023-02-09T05:35:40.341Z,35.55
2023-02-09T05:37:13.581Z,35.03
2023-02-09T05:38:46.882Z,37.80
2023-02-09T05:40:20.297Z,45.85
2023-02-09T05:42:12.185Z,40.08
2023-02-09T05:43:45.345Z,39.70
2023-02-09T05:45:18.744Z,41.40
2023-02-09T05:46:52.061Z,30.35
2023-02-09T05:48:25.142Z,40.92
2023-02-09T05:49:58.284Z,49.20
2023-02-09T05:51:31.474Z,50.10
2023-02-09T05:53:04.922Z,50.45
2023-02-09T05:54:38.553Z,44.85
2023-02-09T05:56:11.740Z,40.80
2023-02-09T05:57:46.318Z,48.83
2023-02-09T05:59:19.721Z,52.35
2023-02-09T06:00:52.891Z,55.20
2023-02-09T06:02:26.301Z,39.45
2023-02-09T06:03:59.703Z,34.58
2023-02-09T06:05:32.844Z,35.33
2023-02-09T06:07:06.323Z,22.67
2023-02-09T06:08:39.444Z,27.45
2023-02-09T06:10:12.744Z,24.17
2023-02-09T06:11:46.492Z,33.22
2023-02-09T06:13:20.976Z,42.80
2023-02-09T06:14:54.153Z,44.75
2023-02-09T06:16:27.514Z,51.22
2023-02-09T06:18:00.883Z,38.67
2023-02-09T06:19:34.047Z,42.35
2023-02-09T06:21:07.674Z,46.08
2023-02-09T06:22:41.098Z,39.03
2023-02-09T06:24:14.954Z,32.53
2023-02-09T06:25:48.092Z,38.67
2023-02-09T06:27:21.209Z,48.30
2023-02-09T06:28:56.020Z,34.67
2023-02-09T06:30:29.631Z,32.38
2023-02-09T06:32:02.921Z,43.47
2023-02-09T06:33:37.069Z,31.92
2023-02-09T06:35:10.250Z,28.92
2023-02-09T06:36:43.676Z,33.20
2023-02-09T06:38:16.731Z,32.28
2023-02-09T06:39:50.107Z,31.38
2023-02-09T06:41:23.535Z,27.55
2023-02-09T06:42:56.777Z,31.38
2023-02-09T06:44:31.252Z,30.23
2023-02-09T06:46:07.805Z,29.20
2023-02-09T06:47:42.883Z,32.85
2023-02-09T06:49:16.303Z,29.23
2023-02-09T06:50:49.536Z,33.63
2023-02-09T06:52:22.862Z,29.60
2023-02-09T06:53:56.317Z,32.08
2023-02-09T06:55:29.547Z,26.85
2023-02-09T06:57:02.697Z,29.02
2023-02-09T06:58:36.069Z,29.88
2023-02-09T07:00:12.850Z,39.88
2023-02-09T07:01:46.280Z,26.40
2023-02-09T07:03:19.408Z,35.35
2023-02-09T07:04:52.540Z,27.98
2023-02-09T07:06:25.655Z,24.13
2023-02-09T07:07:58.927Z,28.23
2023-02-09T07:09:32.222Z,24.83
2023-02-09T07:11:06.494Z,25.20
2023-02-09T07:12:40.733Z,21.23
2023-02-09T07:14:14.101Z,24.98
2023-02-09T07:15:56.137Z,20.55
2023-02-09T07:17:30.019Z,28.92
2023-02-09T07:19:03.296Z,26.58
2023-02-09T07:20:36.656Z,29.40
2023-02-09T07:22:09.750Z,31.67
2023-02-09T07:23:43.074Z,34.83
2023-02-09T07:25:16.502Z,25.02
2023-02-09T07:26:49.930Z,32.58
2023-02-09T07:28:23.537Z,24.13
2023-02-09T07:29:56.717Z,22.38
2023-02-09T07:31:31.322Z,27.35
2023-02-09T07:33:04.624Z,23.50
2023-02-09T07:34:37.813Z,30.23
2023-02-09T07:36:14.023Z,21.13
2023-02-09T07:37:47.467Z,24.65
2023-02-09T07:39:20.698Z,28.48
2023-02-09T07:40:54.338Z,25.35
2023-02-09T07:42:27.557Z,25.88
2023-02-09T07:44:07.747Z,35.95
2023-02-09T07:45:41.895Z,32.10
2023-02-09T07:47:16.429Z,33.70
2023-02-09T07:48:50.228Z,34.75
2023-02-09T07:50:23.449Z,30.83
2023-02-09T07:51:56.752Z,26.02
2023-02-09T07:53:30.600Z,24.10
2023-02-09T07:55:04.149Z,28.65
2023-02-09T07:56:37.649Z,46.22
2023-02-09T07:58:10.890Z,31.23
2023-02-09T07:59:44.024Z,26.13
2023-02-09T08:01:17.968Z,23.55
2023-02-09T08:02:52.997Z,25.67
2023-02-09T08:04:26.309Z,22.95
2023-02-09T08:06:03.615Z,24.83
2023-02-09T08:07:36.812Z,25.17
2023-02-09T08:09:10.765Z,30.42
2023-02-09T08:10:44.503Z,25.85
2023-02-09T08:12:17.774Z,31.35
2023-02-09T08:13:52.122Z,33.72
2023-02-09T08:15:25.551Z,33.17
2023-02-09T08:17:16.905Z,45.92
2023-02-09T08:18:55.594Z,33.15
2023-02-09T08:20:31.295Z,32.50
2023-02-09T08:22:04.466Z,31.80
2023-02-09T08:23:40.401Z,33.45
2023-02-09T08:25:15.920Z,35.97
2023-02-09T08:26:49.211Z,35.25
2023-02-09T08:28:34.896Z,33.28
2023-02-09T08:30:17.837Z,27.20
2023-02-09T08:31:51.209Z,23.52
2023-02-09T08:33:24.481Z,28.83
2023-02-09T08:34:59.024Z,28.90
2023-02-09T08:36:34.379Z,32.53
2023-02-09T08:38:07.673Z,24.02
2023-02-09T08:39:40.902Z,24.20
2023-02-09T08:41:16.297Z,26.08
2023-02-09T08:42:49.461Z,28.95
2023-02-09T08:44:22.683Z,25.30
2023-02-09T08:45:56.048Z,19.40
2023-02-09T08:47:29.237Z,25.88
2023-02-09T08:49:02.469Z,30.75
2023-02-09T08:50:37.580Z,24.23
2023-02-09T08:52:10.808Z,21.15
2023-02-09T08:53:46.311Z,20.95
2023-02-09T08:55:19.622Z,17.67
2023-02-09T08:56:52.980Z,20.65
2023-02-09T08:58:26.494Z,18.52
2023-02-09T08:59:59.803Z,20.05
2023-02-09T09:01:33.017Z,19.48
2023-02-09T09:03:07.415Z,16.48
2023-02-09T09:04:40.883Z,21.02
2023-02-09T09:06:15.477Z,20.48
2023-02-09T09:07:48.824Z,18.42
2023-02-09T09:09:22.048Z,22.23
2023-02-09T09:10:55.942Z,19.33
2023-02-09T09:12:30.824Z,17.95
2023-02-09T09:14:03.909Z,20.08
2023-02-09T09:15:38.505Z,18.77
2023-02-09T09:17:11.936Z,16.42
2023-02-09T09:18:45.640Z,18.48
2023-02-09T09:20:19.212Z,20.55
2023-02-09T09:21:53.800Z,13.70
2023-02-09T09:23:27.174Z,14.02
2023-02-09T09:25:00.272Z,12.15
2023-02-09T09:26:35.164Z,13.43
2023-02-09T09:28:09.112Z,18.02
2023-02-09T09:29:42.890Z,17.20
2023-02-09T09:31:17.854Z,19.00
2023-02-09T09:32:52.974Z,15.30
2023-02-09T09:34:26.386Z,12.73
2023-02-09T09:36:01.064Z,16.73
2023-02-09T09:37:35.638Z,18.83
2023-02-09T09:39:08.823Z,13.05
2023-02-09T09:40:45.650Z,18.52
2023-02-09T09:42:25.507Z,15.70
2023-02-09T09:43:58.877Z,14.50
2023-02-09T09:45:36.390Z,15.35
2023-02-09T09:47:17.448Z,5.28
2023-02-09T09:48:54.510Z,16.73
2023-02-09T09:50:32.719Z,16.38
2023-02-09T09:52:10.285Z,20.17
2023-02-09T09:53:48.208Z,16.48
2023-02-09T09:55:25.446Z,17.77
2023-02-09T09:56:58.616Z,27.67
2023-02-09T09:58:34.046Z,17.33
2023-02-09T10:00:19.278Z,15.25
2023-02-09T10:01:54.820Z,16.58
2023-02-09T10:03:28.231Z,17.42
2023-02-09T10:05:06.341Z,19.42
2023-02-09T10:06:42.739Z,17.25
2023-02-09T10:08:21.244Z,20.25
2023-02-09T10:10:00.166Z,13.60
2023-02-09T10:11:39.190Z,17.15
2023-02-09T10:13:22.049Z,19.67
2023-02-09T10:14:55.233Z,20.38
2023-02-09T10:16:30.573Z,26.73
2023-02-09T10:18:04.172Z,15.70
2023-02-09T10:19:37.838Z,17.75
2023-02-09T10:21:13.784Z,24.65
2023-02-09T10:22:52.501Z,20.67
2023-02-09T10:24:28.198Z,16.98
2023-02-09T10:26:05.839Z,20.95
2023-02-09T10:27:46.460Z,22.50
2023-02-09T10:29:25.575Z,17.58
2023-02-09T10:31:02.040Z,16.70
2023-02-09T10:32:40.059Z,6.22
2023-02-09T10:34:15.897Z,15.70
2023-02-09T10:35:52.218Z,16.80
2023-02-09T10:37:29.074Z,15.98
2023-02-09T10:39:15.485Z,22.42
2023-02-09T10:40:49.916Z,16.10
2023-02-09T10:42:29.055Z,14.43
2023-02-09T10:44:06.995Z,15.85
2023-02-09T10:45:46.027Z,14.98
2023-02-09T10:47:29.595Z,16.02
2023-02-09T10:49:03.515Z,15.25
2023-02-09T10:50:50.903Z,20.40
2023-02-09T10:52:26.173Z,17.80
2023-02-09T10:54:03.243Z,19.65
2023-02-09T10:55:39.888Z,19.30
2023-02-09T10:57:26.636Z,19.58
2023-02-09T10:59:02.367Z,17.30
2023-02-09T11:00:39.854Z,11.18
2023-02-09T11:02:34.520Z,14.82
2023-02-09T11:04:18.748Z,17.20
2023-02-09T11:06:00.797Z,17.70
2023-02-09T11:07:38.702Z,21.42
2023-02-09T11:09:17.508Z,19.55
2023-02-09T11:11:01.048Z,12.18
2023-02-09T11:12:36.912Z,16.23
2023-02-09T11:14:14.597Z,18.40
2023-02-09T11:16:02.483Z,17.63
2023-02-09T11:17:40.691Z,15.98
2023-02-09T11:19:39.431Z,15.23
2023-02-09T11:21:18.415Z,12.18
2023-02-09T11:23:07.818Z,17.20
2023-02-09T11:24:55.115Z,17.58
2023-02-09T11:26:40.341Z,20.73
2023-02-09T11:28:29.596Z,22.98
2023-02-09T11:30:16.752Z,15.98
2023-02-09T11:32:09.733Z,7.68
2023-02-09T11:33:54.094Z,16.75
2023-02-09T11:35:37.764Z,16.13
2023-02-09T11:37:25.165Z,13.23
2023-02-09T11:39:01.920Z,19.63
2023-02-09T11:40:41.437Z,12.80
2023-02-09T11:42:37.434Z,11.38
2023-02-09T11:44:21.718Z,17.50
2023-02-09T11:45:58.854Z,20.83
2023-02-09T11:47:43.304Z,17.15
2023-02-09T11:49:24.739Z,19.10
2023-02-09T11:51:03.383Z,20.77
2023-02-09T11:52:43.204Z,19.20
2023-02-09T11:54:18.692Z,10.43
2023-02-09T11:55:57.951Z,8.10
2023-02-09T11:57:37.363Z,21.85
2023-02-09T11:59:19.010Z,25.55
2023-02-09T12:01:13.251Z,19.15
2023-02-09T12:02:58.722Z,18.27
2023-02-09T12:04:42.590Z,18.58
2023-02-09T12:06:22.935Z,18.15
2023-02-09T12:08:20.741Z,13.98
2023-02-09T12:10:04.165Z,14.45
2023-02-09T12:11:57.315Z,18.20
2023-02-09T12:13:39.588Z,14.00
2023-02-09T12:15:17.756Z,13.90
2023-02-09T12:16:59.244Z,14.40
2023-02-09T12:18:36.481Z,15.60
2023-02-09T12:20:25.102Z,15.70
2023-02-09T12:21:58.272Z,16.00
2023-02-09T12:23:33.492Z,18.48
2023-02-09T12:25:18.459Z,13.45
2023-02-09T12:26:57.396Z,22.20
2023-02-09T12:28:42.308Z,16.75
2023-02-09T12:30:52.816Z,11.60
2023-02-09T12:32:42.695Z,12.82
2023-02-09T12:34:24.374Z,14.13
2023-02-09T12:36:02.697Z,16.08
2023-02-09T12:38:15.460Z,20.13
2023-02-09T12:40:18.586Z,18.35
2023-02-09T12:42:28.384Z,21.02
2023-02-09T12:44:39.041Z,15.40
2023-02-09T12:46:26.755Z,16.45
2023-02-09T12:48:12.114Z,21.15
2023-02-09T12:49:45.945Z,12.93
2023-02-09T12:51:42.375Z,18.73
2023-02-09T12:53:46.211Z,15.00
2023-02-09T12:55:22.499Z,12.18
2023-02-09T12:56:55.843Z,23.58
2023-02-09T12:58:36.489Z,17.50
2023-02-09T13:00:40.987Z,16.17
2023-02-09T13:02:18.056Z,11.52
2023-02-09T13:03:59.003Z,13.43
2023-02-09T13:05:38.069Z,17.95
2023-02-09T13:07:24.204Z,18.65
2023-02-09T13:08:59.802Z,14.30
2023-02-09T13:10:39.134Z,16.70
2023-02-09T13:12:15.981Z,21.58
2023-02-09T13:13:54.014Z,19.48
2023-02-09T13:15:34.526Z,18.15
2023-02-09T13:17:40.150Z,14.70
2023-02-09T13:19:27.597Z,20.73
2023-02-09T13:21:18.979Z,26.73
2023-02-09T13:23:04.399Z,28.67
2023-02-09T13:24:40.642Z,34.40
2023-02-09T13:26:23.206Z,31.50
2023-02-09T13:27:56.492Z,32.28
2023-02-09T13:29:31.300Z,19.20
2023-02-09T13:31:18.334Z,23.70
2023-02-09T13:32:57.807Z,17.90
2023-02-09T13:34:38.992Z,16.65
2023-02-09T13:36:26.508Z,26.25
2023-02-09T13:38:01.225Z,19.92
2023-02-09T13:39:40.795Z,16.77
2023-02-09T13:41:37.164Z,16.48
2023-02-09T13:43:18.714Z,15.02
2023-02-09T13:44:53.905Z,12.77
2023-02-09T13:46:28.511Z,14.57
2023-02-09T13:48:04.638Z,11.35
2023-02-09T13:49:39.117Z,11.70
2023-02-09T13:51:17.317Z,14.50
2023-02-09T13:52:51.393Z,17.92
2023-02-09T13:54:24.629Z,13.13
2023-02-09T13:56:01.428Z,17.70
2023-02-09T13:57:37.139Z,16.80
2023-02-09T13:59:13.737Z,20.73
2023-02-09T14:00:49.895Z,18.13
2023-02-09T14:02:27.625Z,27.25
2023-02-09T14:04:06.410Z,28.88
2023-02-09T14:05:45.176Z,46.15
2023-02-09T14:07:19.748Z,20.35
2023-02-09T14:08:54.752Z,22.77
2023-02-09T14:10:29.961Z,4.25
2023-02-09T14:12:09.359Z,28.33
2023-02-09T14:13:46.406Z,19.00
2023-02-09T14:15:39.150Z,28.40
2023-02-09T14:17:24.728Z,28.67
2023-02-09T14:19:00.130Z,23.00
2023-02-09T14:20:33.252Z,22.30
2023-02-09T14:22:27.694Z,23.92
2023-02-09T14:24:22.060Z,17.02
2023-02-09T14:26:04.119Z,21.25
2023-02-09T14:27:38.133Z,16.85
2023-02-09T14:29:17.814Z,23.85
2023-02-09T14:30:51.747Z,24.52
2023-02-09T14:32:34.834Z,20.40
2023-02-09T14:34:28.911Z,22.38
2023-02-09T14:36:03.036Z,13.82
2023-02-09T14:37:38.511Z,28.05
2023-02-09T14:39:16.551Z,25.58
2023-02-09T14:40:49.873Z,28.45
2023-02-09T14:42:24.033Z,24.13
2023-02-09T14:44:04.602Z,20.40
2023-02-09T14:45:41.005Z,21.50
2023-02-09T14:47:30.442Z,19.10
2023-02-09T14:49:03.604Z,31.88
2023-02-09T14:50:36.784Z,38.72
2023-02-09T14:52:15.382Z,39.20
2023-02-09T14:53:51.196Z,36.72
2023-02-09T14:55:27.458Z,34.03
2023-02-09T14:57:03.842Z,35.13
2023-02-09T14:58:37.099Z,50.58
2023-02-09T15:00:19.246Z,11.85
2023-02-09T15:01:54.396Z,34.70
2023-02-09T15:03:27.736Z,45.47
2023-02-09T15:05:01.941Z,30.60
2023-02-09T15:06:36.189Z,43.78
2023-02-09T15:08:15.453Z,36.60
2023-02-09T15:09:51.030Z,40.55
2023-02-09T15:11:42.997Z,29.60
2023-02-09T15:13:16.966Z,22.52
2023-02-09T15:14:50.872Z,30.00
2023-02-09T15:16:24.008Z,29.50
2023-02-09T15:17:59.883Z,23.70
2023-02-09T15:19:32.984Z,35.08
2023-02-09T15:21:06.359Z,31.10
2023-02-09T15:22:39.575Z,57.33
2023-02-09T15:24:12.826Z,41.17
2023-02-09T15:25:47.749Z,30.55
2023-02-09T15:27:27.230Z,25.75
2023-02-09T15:29:00.527Z,35.08
2023-02-09T15:30:35.653Z,43.78
2023-02-09T15:32:14.594Z,34.08
2023-02-09T15:33:47.772Z,33.25
2023-02-09T15:35:23.177Z,39.90
2023-02-09T15:36:56.598Z,34.80
2023-02-09T15:38:29.824Z,33.50
2023-02-09T15:40:05.618Z,34.75
2023-02-09T15:41:57.844Z,37.40
2023-02-09T15:43:48.360Z,46.83
2023-02-09T15:45:41.004Z,53.78
2023-02-09T15:47:32.825Z,45.72
2023-02-09T15:49:07.382Z,34.47
2023-02-09T15:50:44.105Z,25.10
2023-02-09T15:52:19.234Z,26.20
2023-02-09T15:53:54.247Z,25.67
2023-02-09T15:55:28.549Z,39.60
2023-02-09T15:57:03.338Z,27.55
2023-02-09T15:58:38.954Z,36.80
2023-02-09T16:00:18.516Z,37.90
2023-02-09T16:01:53.050Z,32.38
2023-02-09T16:03:26.180Z,27.95
2023-02-09T16:04:59.407Z,32.15
2023-02-09T16:06:32.880Z,37.13
2023-02-09T16:08:06.361Z,34.55
2023-02-09T16:09:40.966Z,33.05
2023-02-09T16:11:20.997Z,42.90
2023-02-09T16:12:56.694Z,87.63
2023-02-09T16:14:31.793Z,42.35
2023-02-09T16:16:16.256Z,47.47
2023-02-09T16:17:50.846Z,41.50
2023-02-09T16:19:24.211Z,33.45
2023-02-09T16:20:57.470Z,40.03
2023-02-09T16:22:33.543Z,66.18
2023-02-09T16:24:08.406Z,46.88
2023-02-09T16:25:42.020Z,55.88
2023-02-09T16:27:18.133Z,30.48
2023-02-09T16:28:54.067Z,26.95
2023-02-09T16:30:29.214Z,26.40
2023-02-09T16:32:02.445Z,29.60
2023-02-09T16:33:36.467Z,37.92
2023-02-09T16:35:16.943Z,28.77
2023-02-09T16:36:50.797Z,33.90
2023-02-09T16:38:26.534Z,35.88
2023-02-09T16:40:01.034Z,48.33
2023-02-09T16:41:57.452Z,67.57
2023-02-09T16:43:30.632Z,61.83
2023-02-09T16:45:06.756Z,46.20
2023-02-09T16:46:40.136Z,34.50
2023-02-09T16:48:20.558Z,29.83
2023-02-09T16:49:59.193Z,35.90
2023-02-09T16:51:32.523Z,33.30
2023-02-09T16:53:16.321Z,38.13
2023-02-09T16:54:51.262Z,36.75
2023-02-09T16:56:26.151Z,33.85
2023-02-09T16:58:01.501Z,47.92
2023-02-09T16:59:34.867Z,55.60
2023-02-09T17:01:15.824Z,41.47
2023-02-09T17:02:53.146Z,45.65
2023-02-09T17:04:26.738Z,44.60
2023-02-09T17:06:01.576Z,48.63
2023-02-09T17:07:48.777Z,41.30
2023-02-09T17:09:27.283Z,40.40
2023-02-09T17:11:01.841Z,35.40
2023-02-09T17:12:35.419Z,53.55
2023-02-09T17:14:08.644Z,57.20
2023-02-09T17:15:45.330Z,53.95
2023-02-09T17:17:22.249Z,49.33
2023-02-09T17:18:58.105Z,36.65
2023-02-09T17:20:37.460Z,136.75
2023-02-09T17:22:12.790Z,39.78
2023-02-09T17:23:46.020Z,34.83
2023-02-09T17:25:21.038Z,36.75
2023-02-09T17:26:54.250Z,47.92
2023-02-09T17:28:29.034Z,41.85
2023-02-09T17:30:02.197Z,44.70
2023-02-09T17:31:52.018Z,35.83
2023-02-09T17:33:30.672Z,38.53
2023-02-09T17:35:03.853Z,43.42
2023-02-09T17:36:37.622Z,41.60
2023-02-09T17:38:23.125Z,41.22
2023-02-09T17:39:56.467Z,37.15
2023-02-09T17:41:33.923Z,38.47
2023-02-09T17:43:07.095Z,36.97
2023-02-09T17:44:46.346Z,40.67
2023-02-09T17:46:20.623Z,35.47
2023-02-09T17:47:55.270Z,39.97
2023-02-09T17:49:29.848Z,42.42
2023-02-09T17:51:04.747Z,40.47
2023-02-09T17:52:38.015Z,25.30
2023-02-09T17:54:14.790Z,29.33
2023-02-09T17:55:48.998Z,45.17
2023-02-09T17:57:22.614Z,43.33
2023-02-09T17:58:57.461Z,41.88
2023-02-09T18:00:30.760Z,54.33
2023-02-09T18:02:03.898Z,52.40
2023-02-09T18:03:37.226Z,51.50
2023-02-09T18:05:19.424Z,45.15
2023-02-09T18:06:52.601Z,43.90
2023-02-09T18:08:27.373Z,40.90
2023-02-09T18:10:02.423Z,46.25
2023-02-09T18:11:57.051Z,38.47
2023-02-09T18:13:30.226Z,60.10
2023-02-09T18:15:04.468Z,88.47
2023-02-09T18:16:37.778Z,56.55
2023-02-09T18:18:11.554Z,50.00
2023-02-09T18:19:44.826Z,50.28
2023-02-09T18:21:19.289Z,60.17
2023-02-09T18:22:53.424Z,57.53
2023-02-09T18:24:29.775Z,54.28
2023-02-09T18:26:03.105Z,53.90
2023-02-09T18:27:36.223Z,65.53
2023-02-09T18:29:09.459Z,52.05
2023-02-09T18:30:43.546Z,48.85
2023-02-09T18:32:17.755Z,43.28
2023-02-09T18:33:50.867Z,36.45
2023-02-09T18:35:26.191Z,45.67
2023-02-09T18:37:01.007Z,60.67
2023-02-09T18:38:35.448Z,51.20
2023-02-09T18:40:08.920Z,56.83
2023-02-09T18:41:44.521Z,55.33
2023-02-09T18:43:17.911Z,38.90
2023-02-09T18:44:51.811Z,43.65
2023-02-09T18:46:27.075Z,42.70
2023-02-09T18:48:00.967Z,40.00
2023-02-09T18:49:34.594Z,42.35
2023-02-09T18:51:08.397Z,33.35
2023-02-09T18:52:54.127Z,34.45
2023-02-09T18:54:29.004Z,34.80
2023-02-09T18:56:02.454Z,37.17
2023-02-09T18:57:35.596Z,38.65
2023-02-09T18:59:08.834Z,50.05
2023-02-09T19:00:42.049Z,36.67
2023-02-09T19:02:16.290Z,45.58
2023-02-09T19:03:50.551Z,60.08
2023-02-09T19:05:26.086Z,57.75
2023-02-09T19:07:00.506Z,82.55
2023-02-09T19:08:35.625Z,111.28
2023-02-09T19:10:11.915Z,239.48
2023-02-09T19:11:45.025Z,89.13
2023-02-09T19:13:18.140Z,98.68
2023-02-09T19:14:52.632Z,71.55
2023-02-09T19:16:25.823Z,54.47
2023-02-09T19:17:59.158Z,68.13
2023-02-09T19:19:32.727Z,58.60
2023-02-09T19:21:06.817Z,72.00
2023-02-09T19:22:40.047Z,72.43
2023-02-09T19:24:14.763Z,66.57
2023-02-09T19:25:48.162Z,49.15
2023-02-09T19:27:21.728Z,49.95
2023-02-09T19:28:57.194Z,67.45
2023-02-09T19:30:30.302Z,77.47
2023-02-09T19:32:05.646Z,49.17
2023-02-09T19:33:39.157Z,45.08
2023-02-09T19:35:12.422Z,42.97
2023-02-09T19:36:45.642Z,39.72
2023-02-09T19:38:18.803Z,40.75
2023-02-09T19:40:00.776Z,48.47
2023-02-09T19:41:33.890Z,61.90
2023-02-09T19:43:07.061Z,61.45
2023-02-09T19:44:40.190Z,76.50
2023-02-09T19:46:13.651Z,56.72
2023-02-09T19:47:46.902Z,46.38
2023-02-09T19:49:20.131Z,53.45
2023-02-09T19:50:56.772Z,49.97
2023-02-09T19:52:30.311Z,48.28
2023-02-09T19:54:03.661Z,34.83
2023-02-09T19:55:38.163Z,33.97
2023-02-09T19:57:11.292Z,33.70
2023-02-09T19:58:45.314Z,39.72
2023-02-09T20:00:19.629Z,27.13
2023-02-09T20:01:52.810Z,40.83
2023-02-09T20:03:26.595Z,41.20
2023-02-09T20:05:00.121Z,37.25
2023-02-09T20:06:34.599Z,48.28
2023-02-09T20:08:07.822Z,33.65
2023-02-09T20:09:40.938Z,35.28
2023-02-09T20:11:18.475Z,35.20
2023-02-09T20:12:51.718Z,45.83
2023-02-09T20:14:26.792Z,54.95
2023-02-09T20:16:01.757Z,109.78
2023-02-09T20:17:35.064Z,87.20
2023-02-09T20:19:08.294Z,79.82
2023-02-09T20:20:42.002Z,90.90
2023-02-09T20:22:15.448Z,86.40
2023-02-09T20:23:49.336Z,79.10
2023-02-09T20:25:22.587Z,84.72
2023-02-09T20:26:57.173Z,104.28
2023-02-09T20:28:30.674Z,96.10
2023-02-09T20:30:05.394Z,71.15
2023-02-09T20:31:42.175Z,53.42
2023-02-09T20:33:15.908Z,52.92
2023-02-09T20:34:49.193Z,60.78
2023-02-09T20:36:25.504Z,55.03
2023-02-09T20:37:58.967Z,50.17
2023-02-09T20:39:32.202Z,37.83
2023-02-09T20:41:09.377Z,39.17
2023-02-09T20:43:01.323Z,41.15
2023-02-09T20:44:52.309Z,52.35
2023-02-09T20:46:45.005Z,37.67
2023-02-09T20:48:20.058Z,34.17